Weather at Notodden Airport

Public forecast

Using degrees Celsius for public forecast. Weather courtesy of forecast.io.

Current aviation weather report (METAR) for Notodden Airport

2024/05/28 16:50 (retrieved 1 hour ago)

ENNO 281650Z 33006KT 9999 -SHRA BKN045 14/13 Q1010

Closest aviation forecast (TAF) to Notodden Airport

Closest forecast is Sandefjord Airport, Torp, 39.2 nm (72.6 km) SE.

2024/05/28 18:36 (retrieved 0 seconds ago)

TAF ENTO 281700Z 2818/2918 14008KT 9999 SCT020 BKN050 PROB40 TEMPO 2818/2822 SHRA BKN012 FEW030CB BECMG 2821/2823 20010KT